Time;durP1;ratioP1;P1;durP2;ratioP2;P2;SDS_P1;SDS_P2;PMS_P1;PMS_P2;Temp;Humidity;BMP_temperature;BMP_pressure;BME280_temperature;BME280_humidity;BME280_pressure;Samples;Min_cycle;Max_cycle;Signal;HPM_P1;HPM_P2
2022/02/13 00:00:53;;;;;;;6.60;2.70;;;2.90;99.90;;;;;;6289458;28;20265;-75
2022/02/13 00:03:59;;;;;;;9.10;2.37;;;2.90;99.90;;;;;;6289160;28;20291;-75
2022/02/13 00:07:05;;;;;;;4.37;2.40;;;2.90;99.90;;;;;;6289470;28;20432;-76
2022/02/13 00:10:15;;;;;;;5.83;2.50;;;2.90;99.90;;;;;;6289092;28;20587;-75
2022/02/13 00:13:22;;;;;;;7.60;3.20;;;2.90;99.90;;;;;;6288746;28;20471;-75
2022/02/13 00:16:27;;;;;;;4.97;2.40;;;2.90;99.90;;;;;;6288967;28;20508;-75
2022/02/13 00:19:32;;;;;;;8.63;2.67;;;2.90;99.90;;;;;;6288229;28;20305;-75
2022/02/13 00:22:38;;;;;;;11.47;2.97;;;2.90;99.90;;;;;;6288672;28;20311;-75
2022/02/13 00:25:43;;;;;;;5.73;2.57;;;2.90;99.90;;;;;;6288863;28;20550;-75
2022/02/13 00:28:52;;;;;;;5.30;2.37;;;2.90;99.90;;;;;;6288923;28;20293;-75
2022/02/13 00:31:59;;;;;;;3.77;2.43;;;2.90;99.90;;;;;;6288621;28;20275;-75
2022/02/13 00:35:05;;;;;;;5.00;2.50;;;2.90;99.90;;;;;;6270690;28;20266;-75
2022/02/13 00:38:15;;;;;;;7.30;2.50;;;3.00;99.90;;;;;;6287928;28;20300;-75
2022/02/13 00:41:20;;;;;;;4.67;2.63;;;3.00;99.90;;;;;;6289202;28;20438;-75
2022/02/13 00:44:27;;;;;;;4.67;2.63;;;3.00;99.90;;;;;;6288224;28;20301;-75
2022/02/13 00:47:33;;;;;;;5.43;2.73;;;3.00;99.90;;;;;;6287669;28;20490;-75
2022/02/13 00:50:39;;;;;;;4.20;2.63;;;3.10;99.90;;;;;;6287958;28;20276;-75
2022/02/13 00:53:44;;;;;;;4.23;2.63;;;3.10;99.90;;;;;;6288167;28;20301;-75
2022/02/13 00:56:50;;;;;;;9.77;2.80;;;3.10;99.90;;;;;;6288477;28;20291;-75
2022/02/13 00:59:57;;;;;;;7.57;2.87;;;3.10;99.90;;;;;;6287226;28;20295;-74
2022/02/13 01:03:02;;;;;;;8.70;3.07;;;3.10;99.90;;;;;;6288105;28;20292;-74
2022/02/13 01:06:07;;;;;;;4.87;2.80;;;3.10;99.90;;;;;;6287595;28;20277;-74
2022/02/13 01:09:15;;;;;;;3.87;2.07;;;3.00;99.90;;;;;;6288009;28;20441;-74
2022/02/13 01:12:23;;;;;;;6.27;2.70;;;3.00;99.90;;;;;;6288166;28;20291;-75
2022/02/13 01:15:29;;;;;;;11.10;2.70;;;3.00;99.90;;;;;;6287417;28;20271;-74
2022/02/13 01:18:35;;;;;;;2.83;2.63;;;3.00;99.90;;;;;;6287574;28;20605;-74
2022/02/13 01:21:40;;;;;;;4.57;2.90;;;3.00;99.90;;;;;;6269665;28;20331;-74
2022/02/13 01:24:46;;;;;;;6.80;2.90;;;2.90;99.90;;;;;;6287627;28;20294;-74
2022/02/13 01:27:51;;;;;;;3.70;2.77;;;3.00;99.90;;;;;;6287341;28;20325;-75
2022/02/13 01:31:01;;;;;;;6.23;2.70;;;3.00;99.90;;;;;;6288132;28;20438;-74
2022/02/13 01:34:06;;;;;;;5.60;2.80;;;2.90;99.90;;;;;;6286801;28;20299;-74
2022/02/13 01:37:13;;;;;;;12.63;3.40;;;3.00;99.90;;;;;;6286584;28;20494;-74
2022/02/13 01:40:18;;;;;;;3.80;2.40;;;2.90;99.90;;;;;;6287547;28;20278;-74
2022/02/13 01:43:23;;;;;;;3.73;2.83;;;2.80;99.90;;;;;;6286953;28;20301;-74
2022/02/13 01:46:30;;;;;;;7.43;3.07;;;2.90;99.90;;;;;;6286643;28;20577;-74
2022/02/13 01:49:36;;;;;;;13.07;2.97;;;2.90;99.90;;;;;;6287106;28;20296;-74
2022/02/13 01:52:42;;;;;;;9.37;3.20;;;2.90;99.90;;;;;;6286535;28;20316;-74
2022/02/13 01:55:47;;;;;;;3.73;2.73;;;2.80;99.90;;;;;;6286206;28;20271;-73
2022/02/13 01:58:52;;;;;;;8.17;3.07;;;2.90;99.90;;;;;;6286190;28;20310;-73
2022/02/13 02:01:59;;;;;;;8.33;3.07;;;2.90;99.90;;;;;;6286702;28;20576;-73
2022/02/13 02:05:06;;;;;;;6.47;3.10;;;2.80;99.90;;;;;;6284817;28;20458;-74
2022/02/13 02:08:14;;;;;;;6.00;3.00;;;2.80;99.90;;;;;;6286144;28;20470;-73
2022/02/13 02:11:19;;;;;;;6.00;3.00;;;2.80;99.90;;;;;;6286279;28;20263;-74
2022/02/13 02:14:25;;;;;;;9.37;3.33;;;2.80;99.90;;;;;;6285948;28;20361;-74
2022/02/13 02:17:32;;;;;;;3.93;3.00;;;2.80;99.90;;;;;;6286178;28;20298;-74
2022/02/13 02:20:37;;;;;;;8.77;3.10;;;2.80;99.90;;;;;;6286373;28;20474;-74
2022/02/13 02:23:45;;;;;;;9.57;3.57;;;2.80;99.90;;;;;;6286540;28;20237;-74
2022/02/13 02:26:51;;;;;;;8.43;3.27;;;2.80;99.90;;;;;;6286715;28;20271;-74
2022/02/13 02:29:56;;;;;;;6.53;3.47;;;2.80;99.90;;;;;;6285737;28;20294;-75
2022/02/13 02:33:01;;;;;;;9.20;3.30;;;2.80;99.90;;;;;;6286181;28;20295;-73
2022/02/13 02:36:16;;;;;;;5.47;3.00;;;2.80;99.90;;;;;;6269723;28;20560;-74
2022/02/13 02:39:23;;;;;;;8.40;3.37;;;2.70;99.80;;;;;;6285607;28;20300;-75
2022/02/13 02:42:28;;;;;;;6.90;3.10;;;2.70;99.60;;;;;;6285906;28;20304;-76
2022/02/13 02:45:34;;;;;;;5.93;3.40;;;2.80;99.60;;;;;;6285895;28;20275;-75
2022/02/13 02:48:40;;;;;;;8.67;3.47;;;2.70;99.50;;;;;;6286098;28;20303;-74
2022/02/13 02:51:45;;;;;;;7.80;3.10;;;2.70;99.50;;;;;;6286608;28;20273;-74
2022/02/13 02:54:52;;;;;;;8.67;3.13;;;2.70;99.50;;;;;;6286589;28;20296;-73
2022/02/13 02:57:57;;;;;;;6.97;3.30;;;2.70;99.30;;;;;;6285134;28;20446;-73
2022/02/13 03:01:02;;;;;;;8.27;3.27;;;2.70;99.30;;;;;;6286001;28;20271;-74
2022/02/13 03:04:08;;;;;;;8.00;3.33;;;2.60;99.50;;;;;;6285806;28;20295;-73
2022/02/13 03:07:13;;;;;;;5.87;3.10;;;2.60;99.60;;;;;;6286139;28;20272;-74
2022/02/13 03:10:20;;;;;;;6.30;3.43;;;2.60;99.20;;;;;;6285832;28;20267;-75
2022/02/13 03:13:25;;;;;;;4.43;3.10;;;2.60;99.30;;;;;;6285394;28;20295;-75
2022/02/13 03:16:31;;;;;;;3.30;3.00;;;2.60;99.30;;;;;;6289564;28;20268;-75
2022/02/13 03:19:39;;;;;;;5.53;3.70;;;2.60;99.20;;;;;;6290556;28;20308;-75
2022/02/13 03:22:44;;;;;;;5.07;3.67;;;2.60;99.40;;;;;;6271830;28;20306;-75
2022/02/13 03:25:52;;;;;;;4.17;2.90;;;2.60;99.30;;;;;;6290015;28;20271;-74
2022/02/13 03:28:57;;;;;;;6.83;3.40;;;2.60;99.40;;;;;;6290835;28;20321;-75
2022/02/13 03:32:03;;;;;;;6.77;3.60;;;2.60;99.50;;;;;;6289922;28;20270;-75
2022/02/13 03:35:12;;;;;;;5.20;3.20;;;2.50;99.60;;;;;;6290243;28;20271;-75
2022/02/13 03:38:18;;;;;;;3.80;3.50;;;2.50;99.70;;;;;;6290252;28;20475;-76
2022/02/13 03:41:24;;;;;;;7.13;3.53;;;2.50;99.70;;;;;;6290395;28;20270;-75
2022/02/13 03:44:29;;;;;;;4.53;3.03;;;2.50;99.80;;;;;;6289776;28;20295;-74
2022/02/13 03:47:35;;;;;;;6.00;3.10;;;2.50;99.80;;;;;;6289503;28;20299;-74
2022/02/13 03:50:40;;;;;;;6.47;3.07;;;2.50;99.90;;;;;;6290110;28;20277;-75
2022/02/13 03:53:47;;;;;;;10.27;3.03;;;2.50;99.70;;;;;;6289773;28;20566;-74
2022/02/13 03:56:53;;;;;;;8.70;3.17;;;2.50;99.80;;;;;;6289994;28;20544;-74
2022/02/13 03:59:59;;;;;;;9.57;3.13;;;2.40;99.90;;;;;;6289180;28;20308;-74
2022/02/13 04:03:04;;;;;;;5.93;2.87;;;2.40;99.90;;;;;;6287430;28;20295;-75
2022/02/13 04:06:11;;;;;;;9.60;2.83;;;2.40;99.90;;;;;;6289308;28;20262;-74
2022/02/13 04:09:17;;;;;;;7.60;3.00;;;2.40;99.90;;;;;;6289430;28;20306;-74
2022/02/13 04:12:24;;;;;;;8.23;3.47;;;2.40;99.90;;;;;;6289242;28;20290;-75
2022/02/13 04:15:30;;;;;;;7.23;3.07;;;2.40;99.90;;;;;;6288903;28;20273;-75
2022/02/13 04:18:35;;;;;;;5.27;3.13;;;2.40;99.90;;;;;;6288754;28;20471;-74
2022/02/13 04:21:41;;;;;;;8.30;3.23;;;2.40;99.90;;;;;;6288729;28;20498;-74
2022/02/13 04:24:47;;;;;;;5.10;2.60;;;2.40;99.90;;;;;;6288784;28;20595;-73
2022/02/13 04:27:53;;;;;;;3.03;2.73;;;2.40;99.90;;;;;;6287833;28;20293;-75
2022/02/13 04:30:59;;;;;;;6.83;2.40;;;2.40;99.90;;;;;;6288666;28;20441;-74
2022/02/13 04:34:07;;;;;;;6.47;2.50;;;2.40;99.90;;;;;;6288207;28;20301;-73
2022/02/13 04:37:12;;;;;;;3.37;2.67;;;2.40;99.90;;;;;;6288019;28;20264;-74
2022/02/13 04:40:18;;;;;;;4.90;2.57;;;2.40;99.90;;;;;;6288731;28;20288;-74
2022/02/13 04:43:24;;;;;;;3.90;2.73;;;2.40;99.80;;;;;;6288436;28;20305;-74
2022/02/13 04:46:30;;;;;;;5.67;3.10;;;2.40;99.90;;;;;;6289020;28;20274;-74
2022/02/13 04:49:35;;;;;;;9.67;2.73;;;2.40;99.80;;;;;;6288556;28;20471;-74
2022/02/13 04:52:41;;;;;;;3.53;2.60;;;2.50;99.90;;;;;;6287899;28;20297;-74
2022/02/13 04:55:46;;;;;;;3.53;2.67;;;2.40;99.90;;;;;;6288911;28;20279;-74
2022/02/13 04:58:53;;;;;;;5.90;2.93;;;2.40;99.90;;;;;;6287991;28;20303;-74
2022/02/13 05:01:58;;;;;;;3.07;2.37;;;2.40;99.90;;;;;;6287183;28;20551;-74
2022/02/13 05:05:05;;;;;;;4.53;3.00;;;2.40;99.90;;;;;;6288595;28;20459;-74
2022/02/13 05:08:12;;;;;;;3.90;2.60;;;2.40;99.90;;;;;;6287830;28;20586;-74
2022/02/13 05:11:17;;;;;;;6.83;3.00;;;2.40;99.90;;;;;;6287957;28;20554;-74
2022/02/13 05:14:24;;;;;;;3.70;2.50;;;2.40;99.90;;;;;;6287762;28;20298;-75
2022/02/13 05:17:29;;;;;;;6.60;2.97;;;2.40;99.90;;;;;;6287555;28;20299;-73
2022/02/13 05:20:35;;;;;;;6.63;2.70;;;2.40;99.90;;;;;;6286940;28;20306;-73
2022/02/13 05:23:41;;;;;;;4.07;3.30;;;2.40;99.90;;;;;;6287704;28;20299;-73
2022/02/13 05:26:46;;;;;;;6.50;2.63;;;2.40;99.90;;;;;;6287216;28;20587;-74
2022/02/13 05:29:52;;;;;;;3.07;2.67;;;2.40;99.90;;;;;;6286972;28;20320;-74
2022/02/13 05:32:58;;;;;;;3.83;3.10;;;2.50;99.90;;;;;;6286802;28;20296;-74
2022/02/13 05:36:03;;;;;;;2.33;2.13;;;2.50;99.90;;;;;;6287312;28;20270;-75
2022/02/13 05:39:12;;;;;;;5.53;2.80;;;2.50;99.90;;;;;;6286276;28;20462;-74
2022/02/13 05:42:18;;;;;;;11.33;2.80;;;2.40;99.90;;;;;;6286688;28;20295;-75
2022/02/13 05:45:25;;;;;;;6.07;2.67;;;2.40;99.90;;;;;;6287517;28;20271;-75
2022/02/13 05:48:31;;;;;;;3.37;2.43;;;2.40;99.90;;;;;;6286870;28;20291;-75
2022/02/13 05:51:37;;;;;;;4.87;2.50;;;2.50;99.90;;;;;;6287087;28;20445;-75
2022/02/13 05:54:43;;;;;;;6.80;2.80;;;2.50;99.90;;;;;;6286529;28;20328;-75
2022/02/13 05:57:48;;;;;;;6.70;2.47;;;2.50;99.90;;;;;;6286990;28;20583;-75
2022/02/13 06:00:54;;;;;;;4.70;2.80;;;2.50;99.90;;;;;;6286580;28;20289;-75
2022/02/13 06:04:00;;;;;;;8.30;2.90;;;2.50;99.90;;;;;;6286161;28;20296;-75
2022/02/13 06:07:05;;;;;;;4.60;2.30;;;2.50;99.90;;;;;;6286916;28;20435;-75
2022/02/13 06:10:13;;;;;;;7.30;2.80;;;2.50;99.90;;;;;;6286118;28;20442;-75
2022/02/13 06:13:20;;;;;;;8.03;3.00;;;2.50;99.90;;;;;;6286204;28;20304;-75
2022/02/13 06:16:29;;;;;;;6.07;2.70;;;2.40;99.90;;;;;;6286119;28;20302;-75
2022/02/13 06:19:34;;;;;;;5.10;2.67;;;2.40;99.90;;;;;;6286446;28;20310;-75
2022/02/13 06:22:40;;;;;;;7.43;2.77;;;2.40;99.90;;;;;;6285529;28;20308;-76
2022/02/13 06:25:45;;;;;;;4.00;2.50;;;2.40;99.90;;;;;;6286994;28;20284;-75
2022/02/13 06:28:50;;;;;;;7.20;2.80;;;2.40;99.90;;;;;;6285763;28;20306;-75
2022/02/13 06:31:57;;;;;;;3.13;2.27;;;2.40;99.90;;;;;;6285406;28;20411;-75
2022/02/13 06:35:02;;;;;;;2.83;2.63;;;2.30;99.90;;;;;;6286060;28;20475;-75
2022/02/13 06:38:12;;;;;;;3.50;2.63;;;2.30;99.90;;;;;;6286096;28;20594;-75
2022/02/13 06:41:17;;;;;;;4.73;2.13;;;2.30;99.90;;;;;;6286314;28;20490;-75
2022/02/13 06:44:22;;;;;;;3.23;2.43;;;2.30;99.90;;;;;;6286209;28;20294;-75
2022/02/13 06:47:29;;;;;;;4.83;2.47;;;2.30;99.90;;;;;;6286011;28;20294;-75
2022/02/13 06:50:34;;;;;;;3.43;2.53;;;2.40;99.90;;;;;;6288904;28;20277;-74
2022/02/13 06:53:40;;;;;;;6.07;2.60;;;2.40;99.90;;;;;;6291291;28;20297;-75
2022/02/13 06:56:46;;;;;;;4.27;2.60;;;2.40;99.90;;;;;;6291901;28;20302;-74
2022/02/13 06:59:51;;;;;;;5.67;2.53;;;2.40;99.90;;;;;;6290567;28;20310;-74
2022/02/13 07:02:58;;;;;;;8.93;2.93;;;2.40;99.90;;;;;;6290195;28;20299;-75
2022/02/13 07:06:03;;;;;;;4.50;2.73;;;2.40;99.90;;;;;;6291366;28;20270;-75
2022/02/13 07:09:09;;;;;;;5.17;2.50;;;2.50;99.90;;;;;;6290841;28;20298;-75
2022/02/13 07:12:14;;;;;;;7.00;2.57;;;2.50;99.90;;;;;;6289807;28;20404;-75
2022/02/13 07:15:20;;;;;;;6.20;2.87;;;2.40;99.90;;;;;;6290977;28;20267;-75
2022/02/13 07:18:27;;;;;;;3.00;2.60;;;2.50;99.90;;;;;;6290376;28;20302;-75
2022/02/13 07:21:32;;;;;;;3.10;2.63;;;2.50;99.90;;;;;;6290531;28;20301;-75
2022/02/13 07:24:38;;;;;;;8.30;3.20;;;2.50;99.90;;;;;;6290173;28;20298;-74
2022/02/13 07:27:43;;;;;;;2.93;2.33;;;2.60;99.90;;;;;;6289656;28;20298;-74
2022/02/13 07:30:48;;;;;;;3.27;2.27;;;2.60;99.90;;;;;;6291108;28;20574;-75
2022/02/13 07:33:55;;;;;;;3.37;2.27;;;2.60;99.90;;;;;;6290134;28;20296;-74
2022/02/13 07:37:02;;;;;;;3.17;2.20;;;2.50;99.90;;;;;;6290267;28;20278;-74
2022/02/13 07:40:11;;;;;;;3.43;2.60;;;2.60;99.90;;;;;;6290492;28;20271;-73
2022/02/13 07:43:20;;;;;;;3.33;2.13;;;2.50;99.90;;;;;;6289366;28;20358;-74
2022/02/13 07:46:25;;;;;;;5.97;2.23;;;2.50;99.90;;;;;;6290467;28;20271;-75
2022/02/13 07:49:32;;;;;;;6.10;2.73;;;2.50;99.90;;;;;;6290247;28;20296;-74
2022/02/13 07:52:38;;;;;;;5.30;2.40;;;2.50;99.90;;;;;;6289699;28;20301;-75
2022/02/13 07:55:43;;;;;;;5.13;2.40;;;2.60;99.90;;;;;;6290206;28;20448;-74
2022/02/13 07:58:50;;;;;;;6.63;2.47;;;2.70;99.90;;;;;;6289939;28;20470;-74
2022/02/13 08:01:56;;;;;;;4.27;2.30;;;2.70;99.90;;;;;;6288004;28;20582;-75
2022/02/13 08:05:02;;;;;;;4.47;2.30;;;2.70;99.90;;;;;;6290046;28;20270;-74
2022/02/13 08:08:08;;;;;;;3.37;2.37;;;2.80;99.90;;;;;;6288927;28;20299;-75
2022/02/13 08:11:13;;;;;;;4.27;2.53;;;2.80;99.90;;;;;;6288938;28;20272;-75
2022/02/13 08:14:19;;;;;;;4.40;2.10;;;2.90;99.90;;;;;;6289637;28;20304;-75
2022/02/13 08:17:26;;;;;;;4.93;2.50;;;2.90;99.90;;;;;;6288994;28;20295;-75
2022/02/13 08:20:38;;;;;;;3.93;1.93;;;2.90;99.90;;;;;;6289036;28;20446;-75
2022/02/13 08:23:43;;;;;;;4.10;2.27;;;2.90;99.90;;;;;;6288081;28;20304;-75
2022/02/13 08:26:50;;;;;;;7.13;2.80;;;3.00;99.90;;;;;;6288666;28;20271;-75
2022/02/13 08:29:55;;;;;;;5.70;2.80;;;3.00;99.90;;;;;;6288865;28;20276;-75
2022/02/13 08:33:02;;;;;;;4.23;2.27;;;3.10;99.90;;;;;;6288342;28;20491;-75
2022/02/13 08:36:08;;;;;;;3.73;2.37;;;3.10;99.90;;;;;;6289261;28;20293;-77
2022/02/13 08:39:14;;;;;;;7.50;2.60;;;3.20;99.80;;;;;;6289186;28;20304;-76
2022/02/13 08:42:19;;;;;;;4.90;2.20;;;3.20;99.70;;;;;;6288575;28;20307;-75
2022/02/13 08:45:25;;;;;;;7.03;2.43;;;3.20;99.60;;;;;;6289541;28;20447;-76
2022/02/13 08:48:30;;;;;;;9.27;2.40;;;3.30;99.70;;;;;;6288692;28;20297;-75
2022/02/13 08:51:37;;;;;;;2.73;2.20;;;3.30;99.70;;;;;;6289216;28;20273;-76
2022/02/13 08:54:42;;;;;;;7.27;2.77;;;3.30;99.80;;;;;;6288044;28;20321;-77
2022/02/13 08:57:48;;;;;;;4.13;2.40;;;3.20;99.80;;;;;;6288211;28;20295;-76
2022/02/13 09:00:56;;;;;;;9.10;2.20;;;3.30;99.90;;;;;;6288272;28;20270;-76
2022/02/13 09:04:01;;;;;;;5.60;2.40;;;3.30;99.80;;;;;;6288358;28;20467;-74
2022/02/13 09:07:08;;;;;;;6.43;2.30;;;3.40;99.90;;;;;;6287333;28;20453;-76
2022/02/13 09:10:15;;;;;;;4.10;2.40;;;3.40;99.90;;;;;;6288548;28;20273;-76
2022/02/13 09:13:20;;;;;;;2.70;2.07;;;3.40;99.90;;;;;;6287773;28;20305;-75
2022/02/13 09:16:26;;;;;;;3.20;2.47;;;3.50;99.80;;;;;;6288476;28;20561;-74
2022/02/13 09:19:31;;;;;;;6.87;2.50;;;3.50;99.80;;;;;;6287034;28;20299;-74
2022/02/13 09:22:37;;;;;;;6.10;2.77;;;3.50;99.80;;;;;;6286629;28;20309;-73
2022/02/13 09:25:43;;;;;;;2.47;2.23;;;3.60;99.80;;;;;;6287623;28;20279;-72
2022/02/13 09:28:48;;;;;;;5.23;2.20;;;3.60;99.70;;;;;;6286737;28;20298;-73
2022/02/13 09:31:55;;;;;;;2.87;2.30;;;3.70;99.70;;;;;;6286745;28;20270;-77
2022/02/13 09:35:01;;;;;;;3.90;2.43;;;3.70;99.60;;;;;;6287107;28;20277;-75
2022/02/13 09:38:09;;;;;;;8.77;2.73;;;3.70;99.60;;;;;;6286757;28;20487;-75
2022/02/13 09:41:18;;;;;;;3.83;2.20;;;3.70;99.50;;;;;;6289025;28;20266;-78
2022/02/13 09:44:24;;;;;;;5.63;2.63;;;3.80;99.60;;;;;;6288678;28;20563;-73
2022/02/13 09:47:29;;;;;;;4.23;2.70;;;3.80;99.60;;;;;;6286405;28;20293;-73
2022/02/13 09:50:36;;;;;;;7.13;2.57;;;3.80;99.60;;;;;;6287710;28;20573;-75
2022/02/13 09:53:43;;;;;;;5.00;2.30;;;3.80;99.70;;;;;;6287156;28;20301;-75
2022/02/13 09:56:50;;;;;;;7.53;2.60;;;3.80;99.80;;;;;;6287743;28;20269;-76
2022/02/13 09:59:58;;;;;;;6.43;2.70;;;3.90;99.60;;;;;;6286793;28;20277;-74
2022/02/13 10:03:03;;;;;;;6.80;2.50;;;3.90;99.60;;;;;;6286859;28;20290;-75
2022/02/13 10:06:23;;;;;;;10.90;2.70;;;3.90;99.60;;;;;;6286294;28;20275;-74
2022/02/13 10:09:39;;;;;;;7.47;2.30;;;4.00;99.80;;;;;;6286777;28;20296;-74
2022/02/13 10:12:48;;;;;;;3.73;2.23;;;4.00;99.80;;;;;;6286481;28;20314;-75
2022/02/13 10:15:56;;;;;;;2.83;2.20;;;4.00;99.80;;;;;;6286739;28;20273;-72
2022/02/13 10:19:06;;;;;;;4.93;2.17;;;4.00;99.80;;;;;;6285710;28;20297;-72
2022/02/13 10:22:14;;;;;;;3.33;2.23;;;4.10;99.80;;;;;;6285623;28;20436;-74
2022/02/13 10:25:21;;;;;;;2.73;2.20;;;4.10;99.90;;;;;;6268434;28;20294;-73
2022/02/13 10:28:27;;;;;;;11.80;2.20;;;4.20;99.70;;;;;;6286718;28;20467;-74
2022/02/13 10:31:34;;;;;;;5.83;2.10;;;4.20;99.60;;;;;;6285819;28;20278;-73
2022/02/13 10:34:40;;;;;;;6.63;2.53;;;4.20;99.70;;;;;;6285501;28;20302;-74
2022/02/13 10:37:46;;;;;;;2.33;2.07;;;4.30;99.60;;;;;;6285920;28;20298;-74
2022/02/13 10:40:53;;;;;;;7.63;2.50;;;4.20;99.60;;;;;;6286915;28;20270;-73
2022/02/13 10:44:02;;;;;;;7.53;2.70;;;4.20;99.70;;;;;;6285933;28;20574;-74
2022/02/13 10:47:24;;;;;;;2.47;2.30;;;4.30;99.60;;;;;;6285574;28;20470;-75
2022/02/13 10:50:33;;;;;;;6.10;2.87;;;4.30;99.60;;;;;;6285484;28;20278;-74
2022/02/13 10:53:38;;;;;;;5.60;2.63;;;4.30;99.70;;;;;;6285554;28;20458;-74
2022/02/13 10:56:45;;;;;;;6.03;2.77;;;4.40;99.70;;;;;;6286985;28;20564;-74
2022/02/13 10:59:50;;;;;;;6.70;2.90;;;4.40;99.50;;;;;;6285909;28;20575;-74
2022/02/13 11:02:56;;;;;;;4.73;2.50;;;4.40;99.30;;;;;;6267608;28;20294;-74
2022/02/13 11:06:04;;;;;;;3.40;2.47;;;4.40;99.20;;;;;;6285877;28;20319;-73
2022/02/13 11:09:14;;;;;;;5.47;3.00;;;4.40;99.30;;;;;;6268096;28;20298;-74
2022/02/13 11:12:22;;;;;;;5.90;2.40;;;4.40;99.30;;;;;;6284908;28;20455;-74
2022/02/13 11:15:30;;;;;;;9.57;2.50;;;4.40;99.30;;;;;;6286133;28;20278;-75
2022/02/13 11:18:37;;;;;;;2.40;2.20;;;4.40;99.50;;;;;;6285005;28;20302;-73
2022/02/13 11:21:43;;;;;;;5.03;2.43;;;4.40;99.30;;;;;;6287458;28;20299;-73
2022/02/13 11:24:51;;;;;;;9.93;2.50;;;4.50;99.10;;;;;;6285799;28;20330;-74
2022/02/13 11:28:00;;;;;;;3.23;2.57;;;4.50;99.30;;;;;;6285900;28;20299;-74
2022/02/13 11:31:05;;;;;;;5.70;2.70;;;4.60;99.30;;;;;;6286274;28;20268;-75
2022/02/13 11:34:37;;;;;;;8.73;2.30;;;4.60;99.20;;;;;;6285595;28;20322;-75
2022/02/13 11:37:44;;;;;;;4.03;2.30;;;4.70;99.10;;;;;;6289880;28;20299;-76
2022/02/13 11:40:50;;;;;;;7.07;2.37;;;4.50;99.30;;;;;;6290585;28;20274;-73
2022/02/13 11:44:04;;;;;;;8.30;2.37;;;4.50;99.30;;;;;;6290163;28;20303;-73
2022/02/13 11:47:11;;;;;;;4.70;2.40;;;4.50;99.50;;;;;;6289333;28;20315;-75
2022/02/13 11:50:24;;;;;;;4.80;2.50;;;4.40;99.50;;;;;;6272970;28;20340;-74
2022/02/13 11:53:31;;;;;;;5.13;2.40;;;4.40;99.80;;;;;;6290114;28;20299;-74
2022/02/13 11:56:36;;;;;;;5.07;2.27;;;4.30;99.90;;;;;;6290308;28;20348;-74
2022/02/13 12:00:10;;;;;;;5.43;3.07;;;4.40;99.90;;;;;;6289509;28;20474;-73
2022/02/13 12:03:28;;;;;;;7.70;2.40;;;4.30;99.90;;;;;;6289021;28;20293;-72
2022/02/13 12:06:35;;;;;;;3.63;2.13;;;4.40;99.90;;;;;;6290119;28;20291;-73
2022/02/13 12:09:45;;;;;;;12.27;3.00;;;4.30;99.90;;;;;;6288948;28;20299;-72
2022/02/13 12:12:50;;;;;;;4.80;2.50;;;4.30;99.90;;;;;;6289514;28;20593;-73
2022/02/13 12:15:58;;;;;;;2.37;2.27;;;4.30;99.90;;;;;;6289211;28;20306;-72
2022/02/13 12:19:04;;;;;;;3.63;2.47;;;4.40;99.90;;;;;;6289179;28;20311;-73
2022/02/13 12:22:13;;;;;;;3.50;2.63;;;4.40;99.90;;;;;;6288593;28;20306;-72
2022/02/13 12:25:18;;;;;;;5.43;2.53;;;4.40;99.90;;;;;;6289870;28;20294;-72
2022/02/13 12:28:30;;;;;;;13.27;2.33;;;4.40;99.90;;;;;;6288969;28;20295;-73
2022/02/13 12:31:37;;;;;;;2.87;2.60;;;4.40;99.90;;;;;;6288664;28;20272;-73
2022/02/13 12:34:55;;;;;;;5.30;2.80;;;4.40;99.90;;;;;;6288785;28;20287;-73
2022/02/13 12:38:02;;;;;;;7.07;2.43;;;4.50;99.90;;;;;;6288926;28;20302;-73
2022/02/13 12:41:09;;;;;;;4.33;2.50;;;4.40;99.90;;;;;;6288333;28;20286;-73
2022/02/13 12:44:15;;;;;;;3.80;2.33;;;4.40;99.90;;;;;;6288016;28;20300;-72
2022/02/13 12:47:28;;;;;;;4.63;2.70;;;4.40;99.90;;;;;;6287768;28;20295;-72
2022/02/13 12:50:37;;;;;;;4.20;2.17;;;4.40;99.90;;;;;;6287879;28;20269;-72
2022/02/13 12:53:43;;;;;;;2.73;2.60;;;4.40;99.90;;;;;;6288453;28;20302;-72
2022/02/13 12:56:48;;;;;;;5.80;2.47;;;4.50;99.90;;;;;;6287927;28;20280;-72
2022/02/13 12:59:54;;;;;;;4.60;2.10;;;4.50;99.90;;;;;;6287809;28;20594;-73
2022/02/13 13:03:04;;;;;;;6.90;2.60;;;4.50;99.90;;;;;;6287885;28;20303;-72
2022/02/13 13:06:10;;;;;;;3.87;2.27;;;4.50;99.90;;;;;;6287674;28;20295;-72
2022/02/13 13:09:22;;;;;;;8.43;2.20;;;4.50;99.90;;;;;;6288019;28;20301;-72
2022/02/13 13:12:27;;;;;;;2.50;1.80;;;4.50;99.90;;;;;;6287266;28;20300;-72
2022/02/13 13:15:33;;;;;;;5.00;2.50;;;4.50;99.90;;;;;;6288369;28;20280;-74
2022/02/13 13:18:46;;;;;;;2.43;2.23;;;4.50;99.90;;;;;;6286893;28;20303;-73
2022/02/13 13:21:53;;;;;;;3.80;2.40;;;4.40;99.90;;;;;;6287784;28;20593;-71
2022/02/13 13:25:04;;;;;;;3.37;2.50;;;4.50;99.90;;;;;;6287384;28;20280;-71
2022/02/13 13:28:15;;;;;;;1.97;1.97;;;4.50;99.90;;;;;;6287223;28;20505;-70
2022/02/13 13:31:20;;;;;;;2.47;2.33;;;4.50;99.90;;;;;;6286876;28;20272;-71
2022/02/13 13:34:28;;;;;;;6.87;2.27;;;4.60;99.90;;;;;;6287113;28;20294;-71
2022/02/13 13:37:35;;;;;;;3.00;2.17;;;4.50;99.90;;;;;;6286428;28;20299;-70
2022/02/13 13:40:42;;;;;;;5.67;2.60;;;4.50;99.90;;;;;;6286712;28;20273;-69
2022/02/13 13:43:47;;;;;;;4.03;2.50;;;4.60;99.90;;;;;;6286503;28;20609;-71
2022/02/13 13:46:55;;;;;;;3.27;2.27;;;4.60;99.90;;;;;;6287238;28;20294;-71
2022/02/13 13:50:01;;;;;;;4.37;2.40;;;4.60;99.90;;;;;;6285559;28;20432;-72
2022/02/13 13:53:09;;;;;;;2.60;2.40;;;4.60;99.90;;;;;;6286728;28;20304;-70
2022/02/13 13:56:14;;;;;;;2.47;2.27;;;4.60;99.90;;;;;;6286785;28;20585;-72
2022/02/13 13:59:20;;;;;;;4.13;2.37;;;4.60;99.90;;;;;;6285677;28;20527;-72
2022/02/13 14:02:27;;;;;;;2.60;2.50;;;4.70;99.90;;;;;;6285680;28;20299;-72
2022/02/13 14:05:36;;;;;;;2.30;2.20;;;4.70;99.90;;;;;;6286922;28;20274;-72
2022/02/13 14:08:42;;;;;;;5.60;2.67;;;4.60;99.90;;;;;;6286179;28;20317;-72
2022/02/13 14:11:47;;;;;;;2.40;2.30;;;4.60;99.90;;;;;;6286257;28;20268;-72
2022/02/13 14:14:52;;;;;;;2.57;2.37;;;4.60;99.90;;;;;;6286101;28;20291;-72
2022/02/13 14:18:00;;;;;;;2.70;2.50;;;4.70;99.90;;;;;;6285853;28;20320;-73
2022/02/13 14:21:08;;;;;;;2.47;2.37;;;4.70;99.90;;;;;;6278856;28;20305;-72
2022/02/13 14:24:14;;;;;;;16.30;2.50;;;4.70;99.90;;;;;;6261372;28;20311;-72
2022/02/13 14:27:19;;;;;;;3.73;2.20;;;4.60;99.90;;;;;;6260681;28;20306;-72
2022/02/13 14:30:24;;;;;;;4.40;3.00;;;4.70;99.90;;;;;;6261301;28;20287;-72
2022/02/13 14:33:31;;;;;;;2.90;2.70;;;4.70;99.90;;;;;;6260844;28;20303;-73
2022/02/13 14:36:39;;;;;;;3.13;2.60;;;4.70;99.90;;;;;;6261869;28;20277;-72
2022/02/13 14:39:44;;;;;;;3.13;2.60;;;4.70;99.90;;;;;;6261621;28;20299;-72
2022/02/13 14:42:50;;;;;;;2.80;2.60;;;4.80;99.90;;;;;;6260924;28;20301;-72
2022/02/13 14:45:55;;;;;;;3.33;2.47;;;4.70;99.90;;;;;;6261585;28;20276;-72
2022/02/13 14:49:01;;;;;;;2.50;2.47;;;4.70;99.90;;;;;;6261093;28;20572;-72
2022/02/13 14:52:08;;;;;;;2.70;2.33;;;4.80;99.90;;;;;;6260419;28;20272;-72
2022/02/13 14:55:13;;;;;;;2.40;2.30;;;4.70;99.90;;;;;;6261788;28;20275;-72
2022/02/13 14:58:20;;;;;;;2.60;2.50;;;4.70;99.90;;;;;;6260729;28;20446;-72
2022/02/13 15:01:26;;;;;;;2.50;2.37;;;4.70;99.90;;;;;;6260688;28;20456;-72
2022/02/13 15:04:31;;;;;;;2.20;2.20;;;4.80;99.90;;;;;;6261050;28;20296;-72
2022/02/13 15:07:38;;;;;;;3.73;2.50;;;4.80;99.90;;;;;;6260163;28;20303;-72
2022/02/13 15:10:43;;;;;;;3.03;2.83;;;4.80;99.90;;;;;;6261900;28;20264;-72
2022/02/13 15:13:49;;;;;;;2.77;2.67;;;4.70;99.90;;;;;;6265474;28;20454;-72
2022/02/13 15:16:56;;;;;;;2.53;2.43;;;4.80;99.90;;;;;;6265313;28;20274;-74
2022/02/13 15:20:03;;;;;;;2.73;2.53;;;4.80;99.90;;;;;;6265498;28;20283;-73
2022/02/13 15:23:12;;;;;;;2.43;2.27;;;4.80;99.90;;;;;;6289087;28;20446;-73
2022/02/13 15:26:17;;;;;;;2.63;2.53;;;4.80;99.90;;;;;;6291139;28;20272;-73
2022/02/13 15:29:25;;;;;;;2.50;2.40;;;4.70;99.90;;;;;;6290272;28;20542;-73
2022/02/13 15:32:31;;;;;;;2.47;2.47;;;4.70;99.90;;;;;;6289316;28;20296;-73
2022/02/13 15:35:37;;;;;;;2.53;2.43;;;4.70;99.90;;;;;;6290011;28;20278;-73
2022/02/13 15:38:44;;;;;;;2.67;2.57;;;4.70;99.90;;;;;;6289357;28;20301;-73
2022/02/13 15:41:49;;;;;;;3.43;2.63;;;4.70;99.90;;;;;;6289562;28;20271;-73
2022/02/13 15:44:54;;;;;;;2.50;2.30;;;4.70;99.90;;;;;;6272367;28;20296;-73
2022/02/13 15:48:00;;;;;;;4.13;2.73;;;4.70;99.90;;;;;;6289061;28;20313;-73
2022/02/13 15:51:06;;;;;;;3.00;2.40;;;4.70;99.90;;;;;;6290270;28;20548;-73
2022/02/13 15:54:12;;;;;;;2.33;2.23;;;4.70;99.90;;;;;;6289700;28;20302;-72
2022/02/13 15:57:18;;;;;;;2.50;2.40;;;4.70;99.90;;;;;;6289488;28;20426;-72
2022/02/13 16:00:23;;;;;;;2.10;2.10;;;4.60;99.90;;;;;;6289758;28;20280;-72
2022/02/13 16:03:28;;;;;;;2.83;2.63;;;4.70;99.90;;;;;;6288821;28;20294;-72
2022/02/13 16:06:34;;;;;;;2.50;2.40;;;4.70;99.90;;;;;;6289008;28;20277;-72
2022/02/13 16:09:41;;;;;;;2.50;2.40;;;4.70;99.90;;;;;;6288770;28;20301;-73
2022/02/13 16:12:46;;;;;;;4.00;2.70;;;4.70;99.90;;;;;;6289040;28;20295;-71
2022/02/13 16:15:54;;;;;;;3.10;2.80;;;4.70;99.90;;;;;;6288939;28;20272;-71
2022/02/13 16:19:00;;;;;;;3.13;2.60;;;4.70;99.90;;;;;;6289036;28;20316;-73
2022/02/13 16:22:06;;;;;;;2.67;2.57;;;4.70;99.90;;;;;;6287874;28;20361;-73
2022/02/13 16:25:13;;;;;;;3.17;2.57;;;4.70;99.90;;;;;;6289528;28;20543;-72